sensor_id;sensor_type;location;lat;lon;timestamp;temperature;humidity
13148;DHT22;6639;50.956;4.242;2022-12-29T00:01:59;13.40;99.90
13148;DHT22;6639;50.956;4.242;2022-12-29T00:04:28;13.80;99.90
13148;DHT22;6639;50.956;4.242;2022-12-29T00:06:55;13.70;99.90
13148;DHT22;6639;50.956;4.242;2022-12-29T00:09:22;13.70;99.90
13148;DHT22;6639;50.956;4.242;2022-12-29T00:11:50;13.60;99.90
13148;DHT22;6639;50.956;4.242;2022-12-29T00:14:18;13.70;99.90
13148;DHT22;6639;50.956;4.242;2022-12-29T00:17:02;13.50;99.90
13148;DHT22;6639;50.956;4.242;2022-12-29T00:19:30;13.60;99.90
13148;DHT22;6639;50.956;4.242;2022-12-29T00:22:15;13.60;99.90
13148;DHT22;6639;50.956;4.242;2022-12-29T00:25:01;13.50;99.90
13148;DHT22;6639;50.956;4.242;2022-12-29T00:27:48;13.80;99.90
13148;DHT22;6639;50.956;4.242;2022-12-29T00:30:33;13.90;99.90
13148;DHT22;6639;50.956;4.242;2022-12-29T00:33:19;13.90;99.90
13148;DHT22;6639;50.956;4.242;2022-12-29T00:36:10;14.00;99.90
13148;DHT22;6639;50.956;4.242;2022-12-29T00:38:42;13.70;99.90
13148;DHT22;6639;50.956;4.242;2022-12-29T00:41:31;13.80;99.90
13148;DHT22;6639;50.956;4.242;2022-12-29T00:44:16;14.10;99.90
13148;DHT22;6639;50.956;4.242;2022-12-29T00:46:45;13.90;99.90
13148;DHT22;6639;50.956;4.242;2022-12-29T00:49:27;14.10;99.90
13148;DHT22;6639;50.956;4.242;2022-12-29T00:51:58;14.10;99.90
13148;DHT22;6639;50.956;4.242;2022-12-29T00:54:31;13.90;99.90
13148;DHT22;6639;50.956;4.242;2022-12-29T00:57:06;14.10;99.90
13148;DHT22;6639;50.956;4.242;2022-12-29T00:59:36;14.40;99.90
13148;DHT22;6639;50.956;4.242;2022-12-29T01:02:03;14.10;99.90
13148;DHT22;6639;50.956;4.242;2022-12-29T01:04:45;14.00;99.90
13148;DHT22;6639;50.956;4.242;2022-12-29T01:07:13;13.70;99.90
13148;DHT22;6639;50.956;4.242;2022-12-29T01:09:40;13.60;99.90
13148;DHT22;6639;50.956;4.242;2022-12-29T01:12:24;13.60;99.90
13148;DHT22;6639;50.956;4.242;2022-12-29T01:15:09;13.60;99.90
13148;DHT22;6639;50.956;4.242;2022-12-29T01:17:36;13.80;99.90
13148;DHT22;6639;50.956;4.242;2022-12-29T01:20:04;14.10;99.90
13148;DHT22;6639;50.956;4.242;2022-12-29T01:22:31;14.20;99.90
13148;DHT22;6639;50.956;4.242;2022-12-29T01:24:58;14.00;99.90
13148;DHT22;6639;50.956;4.242;2022-12-29T01:27:26;13.60;99.90
13148;DHT22;6639;50.956;4.242;2022-12-29T01:29:53;13.60;99.90
13148;DHT22;6639;50.956;4.242;2022-12-29T01:32:21;13.70;99.90
13148;DHT22;6639;50.956;4.242;2022-12-29T01:34:48;13.50;99.90
13148;DHT22;6639;50.956;4.242;2022-12-29T01:37:15;13.70;99.90
13148;DHT22;6639;50.956;4.242;2022-12-29T01:39:42;13.70;99.90
13148;DHT22;6639;50.956;4.242;2022-12-29T01:42:14;13.50;99.90
13148;DHT22;6639;50.956;4.242;2022-12-29T01:44:51;13.60;99.90
13148;DHT22;6639;50.956;4.242;2022-12-29T01:47:29;13.60;99.90
13148;DHT22;6639;50.956;4.242;2022-12-29T01:50:00;13.70;99.90
13148;DHT22;6639;50.956;4.242;2022-12-29T01:52:31;14.00;99.90
13148;DHT22;6639;50.956;4.242;2022-12-29T01:55:00;14.00;99.90
13148;DHT22;6639;50.956;4.242;2022-12-29T01:57:31;14.20;99.90
13148;DHT22;6639;50.956;4.242;2022-12-29T02:00:03;14.10;99.90
13148;DHT22;6639;50.956;4.242;2022-12-29T02:02:32;14.20;99.90
13148;DHT22;6639;50.956;4.242;2022-12-29T02:05:03;14.10;99.90
13148;DHT22;6639;50.956;4.242;2022-12-29T02:07:31;13.90;99.90
13148;DHT22;6639;50.956;4.242;2022-12-29T02:10:00;13.80;99.90
13148;DHT22;6639;50.956;4.242;2022-12-29T02:12:28;13.90;99.90
13148;DHT22;6639;50.956;4.242;2022-12-29T02:14:57;13.90;99.90
13148;DHT22;6639;50.956;4.242;2022-12-29T02:17:44;13.80;99.90
13148;DHT22;6639;50.956;4.242;2022-12-29T02:23:30;13.80;99.90
13148;DHT22;6639;50.956;4.242;2022-12-29T02:29:33;13.60;99.90
13148;DHT22;6639;50.956;4.242;2022-12-29T02:32:15;13.70;99.90
13148;DHT22;6639;50.956;4.242;2022-12-29T02:34:49;13.50;99.90
13148;DHT22;6639;50.956;4.242;2022-12-29T02:37:22;13.50;99.90
13148;DHT22;6639;50.956;4.242;2022-12-29T02:39:59;13.80;99.90
13148;DHT22;6639;50.956;4.242;2022-12-29T02:42:32;13.90;99.90
13148;DHT22;6639;50.956;4.242;2022-12-29T02:45:04;13.50;99.90
13148;DHT22;6639;50.956;4.242;2022-12-29T02:47:40;13.40;99.90
13148;DHT22;6639;50.956;4.242;2022-12-29T02:50:15;13.40;99.90
13148;DHT22;6639;50.956;4.242;2022-12-29T02:52:49;13.50;99.90
13148;DHT22;6639;50.956;4.242;2022-12-29T02:55:17;13.50;99.90
13148;DHT22;6639;50.956;4.242;2022-12-29T02:57:43;13.60;99.90
13148;DHT22;6639;50.956;4.242;2022-12-29T03:00:14;13.40;99.90
13148;DHT22;6639;50.956;4.242;2022-12-29T03:03:06;13.10;99.90
13148;DHT22;6639;50.956;4.242;2022-12-29T03:05:49;13.20;99.90
13148;DHT22;6639;50.956;4.242;2022-12-29T03:08:28;13.10;99.90
13148;DHT22;6639;50.956;4.242;2022-12-29T03:11:01;12.90;99.90
13148;DHT22;6639;50.956;4.242;2022-12-29T03:13:34;13.10;99.90
13148;DHT22;6639;50.956;4.242;2022-12-29T03:16:23;13.00;99.90
13148;DHT22;6639;50.956;4.242;2022-12-29T03:18:57;12.90;99.90
13148;DHT22;6639;50.956;4.242;2022-12-29T03:21:31;13.10;99.90
13148;DHT22;6639;50.956;4.242;2022-12-29T03:24:22;13.00;99.90
13148;DHT22;6639;50.956;4.242;2022-12-29T03:26:52;13.00;99.90
13148;DHT22;6639;50.956;4.242;2022-12-29T03:29:20;13.20;99.90
13148;DHT22;6639;50.956;4.242;2022-12-29T03:31:49;13.20;99.90
13148;DHT22;6639;50.956;4.242;2022-12-29T03:34:24;13.10;99.90
13148;DHT22;6639;50.956;4.242;2022-12-29T03:37:00;13.10;99.90
13148;DHT22;6639;50.956;4.242;2022-12-29T03:39:29;12.90;99.90
13148;DHT22;6639;50.956;4.242;2022-12-29T03:41:59;12.70;99.90
13148;DHT22;6639;50.956;4.242;2022-12-29T03:44:40;12.60;99.90
13148;DHT22;6639;50.956;4.242;2022-12-29T03:47:09;12.60;99.90
13148;DHT22;6639;50.956;4.242;2022-12-29T03:49:39;12.40;99.90
13148;DHT22;6639;50.956;4.242;2022-12-29T03:52:06;12.60;99.90
13148;DHT22;6639;50.956;4.242;2022-12-29T03:54:33;12.80;99.90
13148;DHT22;6639;50.956;4.242;2022-12-29T03:57:00;12.90;99.90
13148;DHT22;6639;50.956;4.242;2022-12-29T03:59:28;13.00;99.90
13148;DHT22;6639;50.956;4.242;2022-12-29T04:01:55;13.20;99.90
13148;DHT22;6639;50.956;4.242;2022-12-29T04:04:22;13.40;99.90
13148;DHT22;6639;50.956;4.242;2022-12-29T04:06:50;13.40;99.90
13148;DHT22;6639;50.956;4.242;2022-12-29T04:09:17;13.10;99.90
13148;DHT22;6639;50.956;4.242;2022-12-29T04:11:46;13.30;99.90
13148;DHT22;6639;50.956;4.242;2022-12-29T04:14:13;13.30;99.90
13148;DHT22;6639;50.956;4.242;2022-12-29T04:16:41;13.50;99.90
13148;DHT22;6639;50.956;4.242;2022-12-29T04:19:09;13.50;99.90
13148;DHT22;6639;50.956;4.242;2022-12-29T04:21:36;13.30;99.90
13148;DHT22;6639;50.956;4.242;2022-12-29T04:24:05;13.30;99.90
13148;DHT22;6639;50.956;4.242;2022-12-29T04:26:40;13.30;99.90
13148;DHT22;6639;50.956;4.242;2022-12-29T04:29:11;13.40;99.90
13148;DHT22;6639;50.956;4.242;2022-12-29T04:31:43;13.70;99.90
13148;DHT22;6639;50.956;4.242;2022-12-29T04:34:11;13.30;99.90
13148;DHT22;6639;50.956;4.242;2022-12-29T04:36:40;13.10;99.90
13148;DHT22;6639;50.956;4.242;2022-12-29T04:39:08;13.10;99.90
13148;DHT22;6639;50.956;4.242;2022-12-29T04:41:36;13.50;99.90
13148;DHT22;6639;50.956;4.242;2022-12-29T04:44:03;13.30;99.90
13148;DHT22;6639;50.956;4.242;2022-12-29T04:46:30;13.40;99.90
13148;DHT22;6639;50.956;4.242;2022-12-29T04:48:57;13.10;99.90
13148;DHT22;6639;50.956;4.242;2022-12-29T04:51:32;12.90;99.90
13148;DHT22;6639;50.956;4.242;2022-12-29T04:53:59;12.80;99.90
13148;DHT22;6639;50.956;4.242;2022-12-29T04:56:28;13.00;99.90
13148;DHT22;6639;50.956;4.242;2022-12-29T04:58:55;12.90;99.90
13148;DHT22;6639;50.956;4.242;2022-12-29T05:01:22;12.80;99.90
13148;DHT22;6639;50.956;4.242;2022-12-29T05:03:50;12.80;99.90
13148;DHT22;6639;50.956;4.242;2022-12-29T05:06:20;12.80;99.90
13148;DHT22;6639;50.956;4.242;2022-12-29T05:08:47;12.80;99.90
13148;DHT22;6639;50.956;4.242;2022-12-29T05:11:15;13.00;99.90
13148;DHT22;6639;50.956;4.242;2022-12-29T05:13:46;13.20;99.90
13148;DHT22;6639;50.956;4.242;2022-12-29T05:16:14;13.40;99.90
13148;DHT22;6639;50.956;4.242;2022-12-29T05:18:45;13.90;99.90
13148;DHT22;6639;50.956;4.242;2022-12-29T05:21:12;13.80;99.90
13148;DHT22;6639;50.956;4.242;2022-12-29T05:23:39;13.40;99.90
13148;DHT22;6639;50.956;4.242;2022-12-29T05:26:08;13.50;99.90
13148;DHT22;6639;50.956;4.242;2022-12-29T05:28:35;13.80;99.90
13148;DHT22;6639;50.956;4.242;2022-12-29T05:31:04;13.80;99.90
13148;DHT22;6639;50.956;4.242;2022-12-29T05:33:34;13.70;99.90
13148;DHT22;6639;50.956;4.242;2022-12-29T05:36:04;13.30;99.90
13148;DHT22;6639;50.956;4.242;2022-12-29T05:38:31;13.40;99.90
13148;DHT22;6639;50.956;4.242;2022-12-29T05:40:58;13.20;99.90
13148;DHT22;6639;50.956;4.242;2022-12-29T05:43:25;13.10;99.90
13148;DHT22;6639;50.956;4.242;2022-12-29T05:45:52;13.20;99.90
13148;DHT22;6639;50.956;4.242;2022-12-29T05:48:23;13.50;99.90
13148;DHT22;6639;50.956;4.242;2022-12-29T05:50:52;13.50;99.90
13148;DHT22;6639;50.956;4.242;2022-12-29T05:53:19;13.50;99.90
13148;DHT22;6639;50.956;4.242;2022-12-29T05:55:47;13.40;99.90
13148;DHT22;6639;50.956;4.242;2022-12-29T05:58:14;13.00;99.90
13148;DHT22;6639;50.956;4.242;2022-12-29T06:00:42;13.10;99.90
13148;DHT22;6639;50.956;4.242;2022-12-29T06:03:09;12.90;99.90
13148;DHT22;6639;50.956;4.242;2022-12-29T06:05:38;12.70;99.90
13148;DHT22;6639;50.956;4.242;2022-12-29T06:08:05;12.80;99.90
13148;DHT22;6639;50.956;4.242;2022-12-29T06:10:32;12.80;99.90
13148;DHT22;6639;50.956;4.242;2022-12-29T06:12:59;12.70;99.90
13148;DHT22;6639;50.956;4.242;2022-12-29T06:15:26;12.90;99.90
13148;DHT22;6639;50.956;4.242;2022-12-29T06:17:53;13.00;99.90
13148;DHT22;6639;50.956;4.242;2022-12-29T06:20:21;13.00;99.90
13148;DHT22;6639;50.956;4.242;2022-12-29T06:22:52;13.00;99.90
13148;DHT22;6639;50.956;4.242;2022-12-29T06:25:19;13.00;99.90
13148;DHT22;6639;50.956;4.242;2022-12-29T06:27:47;13.10;99.90
13148;DHT22;6639;50.956;4.242;2022-12-29T06:30:15;13.00;99.90
13148;DHT22;6639;50.956;4.242;2022-12-29T06:32:44;12.90;99.90
13148;DHT22;6639;50.956;4.242;2022-12-29T06:35:11;12.90;99.90
13148;DHT22;6639;50.956;4.242;2022-12-29T06:37:38;13.10;99.90
13148;DHT22;6639;50.956;4.242;2022-12-29T06:40:08;13.10;99.90
13148;DHT22;6639;50.956;4.242;2022-12-29T06:42:35;13.00;99.90
13148;DHT22;6639;50.956;4.242;2022-12-29T06:45:03;13.10;99.90
13148;DHT22;6639;50.956;4.242;2022-12-29T06:47:30;12.90;99.90
13148;DHT22;6639;50.956;4.242;2022-12-29T06:49:57;13.00;99.90
13148;DHT22;6639;50.956;4.242;2022-12-29T06:52:24;13.30;99.90
13148;DHT22;6639;50.956;4.242;2022-12-29T06:54:51;13.30;99.90
13148;DHT22;6639;50.956;4.242;2022-12-29T06:57:20;13.40;99.90
13148;DHT22;6639;50.956;4.242;2022-12-29T06:59:47;13.50;99.90
13148;DHT22;6639;50.956;4.242;2022-12-29T07:02:14;13.30;99.90
13148;DHT22;6639;50.956;4.242;2022-12-29T07:04:44;13.00;99.90
13148;DHT22;6639;50.956;4.242;2022-12-29T07:07:11;13.00;99.90
13148;DHT22;6639;50.956;4.242;2022-12-29T07:09:37;13.00;99.90
13148;DHT22;6639;50.956;4.242;2022-12-29T07:12:05;12.70;99.90
13148;DHT22;6639;50.956;4.242;2022-12-29T07:14:34;13.00;99.90
13148;DHT22;6639;50.956;4.242;2022-12-29T07:17:04;13.10;99.90
13148;DHT22;6639;50.956;4.242;2022-12-29T07:19:35;13.20;99.90
13148;DHT22;6639;50.956;4.242;2022-12-29T07:22:01;13.10;99.90
13148;DHT22;6639;50.956;4.242;2022-12-29T07:24:28;13.10;99.90
13148;DHT22;6639;50.956;4.242;2022-12-29T07:26:55;12.90;99.90
13148;DHT22;6639;50.956;4.242;2022-12-29T07:29:23;13.00;99.90
13148;DHT22;6639;50.956;4.242;2022-12-29T07:31:51;13.10;99.90
13148;DHT22;6639;50.956;4.242;2022-12-29T07:34:18;12.90;99.90
13148;DHT22;6639;50.956;4.242;2022-12-29T07:36:45;12.90;99.90
13148;DHT22;6639;50.956;4.242;2022-12-29T07:39:12;13.00;99.90
13148;DHT22;6639;50.956;4.242;2022-12-29T07:41:39;13.20;99.90
13148;DHT22;6639;50.956;4.242;2022-12-29T07:44:08;13.20;99.90
13148;DHT22;6639;50.956;4.242;2022-12-29T07:46:35;13.50;99.90
13148;DHT22;6639;50.956;4.242;2022-12-29T07:49:04;13.40;99.90
13148;DHT22;6639;50.956;4.242;2022-12-29T07:51:31;13.60;99.90
13148;DHT22;6639;50.956;4.242;2022-12-29T07:53:58;13.30;99.90
13148;DHT22;6639;50.956;4.242;2022-12-29T07:56:26;12.90;99.90
13148;DHT22;6639;50.956;4.242;2022-12-29T07:58:53;12.90;99.90
13148;DHT22;6639;50.956;4.242;2022-12-29T08:01:20;12.90;99.90
13148;DHT22;6639;50.956;4.242;2022-12-29T08:03:48;12.90;99.90
13148;DHT22;6639;50.956;4.242;2022-12-29T08:06:17;13.00;99.90
13148;DHT22;6639;50.956;4.242;2022-12-29T08:08:45;13.40;99.90
13148;DHT22;6639;50.956;4.242;2022-12-29T08:11:12;13.50;99.90
13148;DHT22;6639;50.956;4.242;2022-12-29T08:13:39;13.10;99.90
13148;DHT22;6639;50.956;4.242;2022-12-29T08:16:06;13.20;99.90
13148;DHT22;6639;50.956;4.242;2022-12-29T08:18:33;13.10;99.90
13148;DHT22;6639;50.956;4.242;2022-12-29T08:21:02;13.20;99.90
13148;DHT22;6639;50.956;4.242;2022-12-29T08:23:31;12.90;99.90
13148;DHT22;6639;50.956;4.242;2022-12-29T08:25:58;12.70;99.90
13148;DHT22;6639;50.956;4.242;2022-12-29T08:28:26;13.00;99.90
13148;DHT22;6639;50.956;4.242;2022-12-29T08:30:53;12.90;99.90
13148;DHT22;6639;50.956;4.242;2022-12-29T08:33:20;13.10;99.90
13148;DHT22;6639;50.956;4.242;2022-12-29T08:35:47;13.00;99.90
13148;DHT22;6639;50.956;4.242;2022-12-29T08:38:14;13.00;99.90
13148;DHT22;6639;50.956;4.242;2022-12-29T08:40:43;13.00;99.90
13148;DHT22;6639;50.956;4.242;2022-12-29T08:43:10;12.60;99.90
13148;DHT22;6639;50.956;4.242;2022-12-29T08:45:37;12.60;99.90
13148;DHT22;6639;50.956;4.242;2022-12-29T08:48:04;12.30;99.90
13148;DHT22;6639;50.956;4.242;2022-12-29T08:50:31;12.40;99.90
13148;DHT22;6639;50.956;4.242;2022-12-29T08:52:58;12.60;99.90
13148;DHT22;6639;50.956;4.242;2022-12-29T08:55:25;12.30;99.90
13148;DHT22;6639;50.956;4.242;2022-12-29T08:57:53;12.20;99.90
13148;DHT22;6639;50.956;4.242;2022-12-29T09:00:20;12.10;99.90
13148;DHT22;6639;50.956;4.242;2022-12-29T09:02:47;12.00;99.90
13148;DHT22;6639;50.956;4.242;2022-12-29T09:05:14;12.30;99.90
13148;DHT22;6639;50.956;4.242;2022-12-29T09:07:42;12.30;99.90
13148;DHT22;6639;50.956;4.242;2022-12-29T09:10:09;12.50;99.90
13148;DHT22;6639;50.956;4.242;2022-12-29T09:12:36;12.30;99.90
13148;DHT22;6639;50.956;4.242;2022-12-29T09:15:05;12.30;99.90
13148;DHT22;6639;50.956;4.242;2022-12-29T09:17:33;12.60;99.90
13148;DHT22;6639;50.956;4.242;2022-12-29T09:20:13;12.30;99.90
13148;DHT22;6639;50.956;4.242;2022-12-29T09:22:41;12.60;99.90
13148;DHT22;6639;50.956;4.242;2022-12-29T09:25:08;12.40;99.90
13148;DHT22;6639;50.956;4.242;2022-12-29T09:27:36;12.30;99.90
13148;DHT22;6639;50.956;4.242;2022-12-29T09:30:07;12.20;99.90
13148;DHT22;6639;50.956;4.242;2022-12-29T09:32:34;12.10;99.90
13148;DHT22;6639;50.956;4.242;2022-12-29T09:35:02;12.10;99.90
13148;DHT22;6639;50.956;4.242;2022-12-29T09:37:29;12.30;99.90
13148;DHT22;6639;50.956;4.242;2022-12-29T09:39:56;12.10;99.90
13148;DHT22;6639;50.956;4.242;2022-12-29T09:42:27;12.00;99.90
13148;DHT22;6639;50.956;4.242;2022-12-29T09:45:07;11.90;99.90
13148;DHT22;6639;50.956;4.242;2022-12-29T09:47:39;12.20;99.90
13148;DHT22;6639;50.956;4.242;2022-12-29T09:50:12;12.00;99.90
13148;DHT22;6639;50.956;4.242;2022-12-29T09:52:46;11.90;99.90
13148;DHT22;6639;50.956;4.242;2022-12-29T09:55:15;12.20;99.90
13148;DHT22;6639;50.956;4.242;2022-12-29T09:57:47;12.10;99.90
13148;DHT22;6639;50.956;4.242;2022-12-29T10:00:18;12.30;99.90
13148;DHT22;6639;50.956;4.242;2022-12-29T10:02:49;12.30;99.90
13148;DHT22;6639;50.956;4.242;2022-12-29T10:05:28;12.30;99.90
13148;DHT22;6639;50.956;4.242;2022-12-29T10:08:09;12.40;99.90
13148;DHT22;6639;50.956;4.242;2022-12-29T10:10:48;12.60;99.90
13148;DHT22;6639;50.956;4.242;2022-12-29T10:13:28;12.30;99.90
13148;DHT22;6639;50.956;4.242;2022-12-29T10:16:04;12.50;99.90
13148;DHT22;6639;50.956;4.242;2022-12-29T10:19:09;12.10;99.90
13148;DHT22;6639;50.956;4.242;2022-12-29T10:21:48;12.20;99.90
13148;DHT22;6639;50.956;4.242;2022-12-29T10:24:22;12.10;99.90
13148;DHT22;6639;50.956;4.242;2022-12-29T10:26:52;12.20;99.90
13148;DHT22;6639;50.956;4.242;2022-12-29T10:29:20;12.40;99.90
13148;DHT22;6639;50.956;4.242;2022-12-29T10:31:54;12.50;99.90
13148;DHT22;6639;50.956;4.242;2022-12-29T10:34:26;12.60;99.90
13148;DHT22;6639;50.956;4.242;2022-12-29T10:36:58;12.90;99.90
13148;DHT22;6639;50.956;4.242;2022-12-29T10:39:30;12.60;99.90
13148;DHT22;6639;50.956;4.242;2022-12-29T10:42:05;12.40;99.90
13148;DHT22;6639;50.956;4.242;2022-12-29T10:44:36;12.70;99.90
13148;DHT22;6639;50.956;4.242;2022-12-29T10:47:07;12.60;99.90
13148;DHT22;6639;50.956;4.242;2022-12-29T10:49:39;12.70;99.90
13148;DHT22;6639;50.956;4.242;2022-12-29T10:52:09;12.90;99.90
13148;DHT22;6639;50.956;4.242;2022-12-29T10:54:44;13.00;99.90
13148;DHT22;6639;50.956;4.242;2022-12-29T10:57:16;13.00;99.90
13148;DHT22;6639;50.956;4.242;2022-12-29T10:59:47;12.70;99.90
13148;DHT22;6639;50.956;4.242;2022-12-29T11:05:10;12.90;99.90
13148;DHT22;6639;50.956;4.242;2022-12-29T11:07:42;13.00;99.90
13148;DHT22;6639;50.956;4.242;2022-12-29T11:10:19;12.90;99.90
13148;DHT22;6639;50.956;4.242;2022-12-29T11:12:57;13.10;99.90
13148;DHT22;6639;50.956;4.242;2022-12-29T11:15:25;13.00;99.90
13148;DHT22;6639;50.956;4.242;2022-12-29T11:17:57;12.90;99.90
13148;DHT22;6639;50.956;4.242;2022-12-29T11:20:31;13.10;99.90
13148;DHT22;6639;50.956;4.242;2022-12-29T11:22:59;13.30;99.90
13148;DHT22;6639;50.956;4.242;2022-12-29T11:25:26;13.70;99.90
13148;DHT22;6639;50.956;4.242;2022-12-29T11:28:00;13.40;99.90
13148;DHT22;6639;50.956;4.242;2022-12-29T11:30:29;13.30;99.90
13148;DHT22;6639;50.956;4.242;2022-12-29T11:32:58;13.10;99.90
13148;DHT22;6639;50.956;4.242;2022-12-29T11:35:31;13.30;99.90
13148;DHT22;6639;50.956;4.242;2022-12-29T11:37:59;13.20;99.90
13148;DHT22;6639;50.956;4.242;2022-12-29T11:40:27;13.30;99.90
13148;DHT22;6639;50.956;4.242;2022-12-29T11:42:56;13.20;99.90
13148;DHT22;6639;50.956;4.242;2022-12-29T11:45:25;13.30;99.90
13148;DHT22;6639;50.956;4.242;2022-12-29T11:48:00;13.50;99.90
13148;DHT22;6639;50.956;4.242;2022-12-29T11:50:31;13.10;99.90
13148;DHT22;6639;50.956;4.242;2022-12-29T11:53:01;13.20;99.90
13148;DHT22;6639;50.956;4.242;2022-12-29T11:55:30;13.10;99.90
13148;DHT22;6639;50.956;4.242;2022-12-29T11:58:01;12.90;99.90
13148;DHT22;6639;50.956;4.242;2022-12-29T12:00:32;13.10;99.90
13148;DHT22;6639;50.956;4.242;2022-12-29T12:03:04;13.20;99.90
13148;DHT22;6639;50.956;4.242;2022-12-29T12:05:37;13.30;99.90
13148;DHT22;6639;50.956;4.242;2022-12-29T12:08:11;13.20;99.90
13148;DHT22;6639;50.956;4.242;2022-12-29T12:10:43;13.70;99.90
13148;DHT22;6639;50.956;4.242;2022-12-29T12:13:18;13.80;99.90
13148;DHT22;6639;50.956;4.242;2022-12-29T12:15:52;13.70;99.90
13148;DHT22;6639;50.956;4.242;2022-12-29T12:18:30;13.10;99.90
13148;DHT22;6639;50.956;4.242;2022-12-29T12:21:05;13.20;99.90
13148;DHT22;6639;50.956;4.242;2022-12-29T12:23:41;13.20;99.90
13148;DHT22;6639;50.956;4.242;2022-12-29T12:26:12;13.10;99.90
13148;DHT22;6639;50.956;4.242;2022-12-29T12:28:46;13.10;99.90
13148;DHT22;6639;50.956;4.242;2022-12-29T12:31:21;13.30;99.90
13148;DHT22;6639;50.956;4.242;2022-12-29T12:33:57;13.50;99.90
13148;DHT22;6639;50.956;4.242;2022-12-29T12:36:40;13.50;99.90
13148;DHT22;6639;50.956;4.242;2022-12-29T12:39:12;13.60;99.90
13148;DHT22;6639;50.956;4.242;2022-12-29T12:41:54;13.30;99.90
13148;DHT22;6639;50.956;4.242;2022-12-29T12:44:31;13.10;99.90
13148;DHT22;6639;50.956;4.242;2022-12-29T12:47:15;12.90;99.90
13148;DHT22;6639;50.956;4.242;2022-12-29T12:50:18;13.10;99.90
13148;DHT22;6639;50.956;4.242;2022-12-29T12:53:01;12.90;99.90
13148;DHT22;6639;50.956;4.242;2022-12-29T12:55:43;13.00;99.90
13148;DHT22;6639;50.956;4.242;2022-12-29T12:58:18;12.90;99.90
13148;DHT22;6639;50.956;4.242;2022-12-29T13:00:54;13.00;99.90
13148;DHT22;6639;50.956;4.242;2022-12-29T13:03:31;13.10;99.90
13148;DHT22;6639;50.956;4.242;2022-12-29T13:06:12;13.20;99.90
13148;DHT22;6639;50.956;4.242;2022-12-29T13:08:56;13.40;99.90
13148;DHT22;6639;50.956;4.242;2022-12-29T13:11:34;13.40;99.90
13148;DHT22;6639;50.956;4.242;2022-12-29T13:14:16;13.50;99.90
13148;DHT22;6639;50.956;4.242;2022-12-29T13:16:51;13.20;99.90
13148;DHT22;6639;50.956;4.242;2022-12-29T13:19:26;13.10;99.90
13148;DHT22;6639;50.956;4.242;2022-12-29T13:22:04;12.80;99.90
13148;DHT22;6639;50.956;4.242;2022-12-29T13:24:40;12.90;99.90
13148;DHT22;6639;50.956;4.242;2022-12-29T13:27:16;13.10;99.90
13148;DHT22;6639;50.956;4.242;2022-12-29T13:29:50;13.10;99.90
13148;DHT22;6639;50.956;4.242;2022-12-29T13:32:28;13.40;99.90
13148;DHT22;6639;50.956;4.242;2022-12-29T13:35:16;13.20;99.90
13148;DHT22;6639;50.956;4.242;2022-12-29T13:37:52;13.00;99.90
13148;DHT22;6639;50.956;4.242;2022-12-29T13:40:24;12.90;99.90
13148;DHT22;6639;50.956;4.242;2022-12-29T13:42:52;12.90;99.90
13148;DHT22;6639;50.956;4.242;2022-12-29T13:45:22;13.00;99.90
13148;DHT22;6639;50.956;4.242;2022-12-29T13:47:57;13.00;99.90
13148;DHT22;6639;50.956;4.242;2022-12-29T13:50:29;12.80;99.90
13148;DHT22;6639;50.956;4.242;2022-12-29T13:53:06;13.10;99.90
13148;DHT22;6639;50.956;4.242;2022-12-29T13:55:44;12.80;99.90
13148;DHT22;6639;50.956;4.242;2022-12-29T13:58:17;12.90;99.90
13148;DHT22;6639;50.956;4.242;2022-12-29T14:00:53;12.80;99.90
13148;DHT22;6639;50.956;4.242;2022-12-29T14:03:44;12.80;99.90
13148;DHT22;6639;50.956;4.242;2022-12-29T14:06:23;12.90;99.90
13148;DHT22;6639;50.956;4.242;2022-12-29T14:08:54;12.90;99.90
13148;DHT22;6639;50.956;4.242;2022-12-29T14:11:24;13.40;99.90
13148;DHT22;6639;50.956;4.242;2022-12-29T14:13:56;12.90;99.90
13148;DHT22;6639;50.956;4.242;2022-12-29T14:16:29;12.80;99.90
13148;DHT22;6639;50.956;4.242;2022-12-29T14:19:03;12.60;99.90
13148;DHT22;6639;50.956;4.242;2022-12-29T14:21:31;12.70;99.90
13148;DHT22;6639;50.956;4.242;2022-12-29T14:27:50;12.10;99.90
13148;DHT22;6639;50.956;4.242;2022-12-29T14:30:48;11.80;99.90
13148;DHT22;6639;50.956;4.242;2022-12-29T14:33:16;11.60;99.90
13148;DHT22;6639;50.956;4.242;2022-12-29T14:35:49;11.70;99.90
13148;DHT22;6639;50.956;4.242;2022-12-29T14:38:30;11.50;99.90
13148;DHT22;6639;50.956;4.242;2022-12-29T14:41:27;11.50;99.90
13148;DHT22;6639;50.956;4.242;2022-12-29T14:44:14;11.70;99.90
13148;DHT22;6639;50.956;4.242;2022-12-29T14:46:54;12.00;99.90
13148;DHT22;6639;50.956;4.242;2022-12-29T14:49:23;11.90;99.90
13148;DHT22;6639;50.956;4.242;2022-12-29T14:51:53;11.70;99.90
13148;DHT22;6639;50.956;4.242;2022-12-29T14:54:47;11.80;99.90
13148;DHT22;6639;50.956;4.242;2022-12-29T14:57:28;11.80;99.90
13148;DHT22;6639;50.956;4.242;2022-12-29T15:00:03;11.50;99.90
13148;DHT22;6639;50.956;4.242;2022-12-29T15:02:34;11.70;99.90
13148;DHT22;6639;50.956;4.242;2022-12-29T15:05:05;11.60;99.90
13148;DHT22;6639;50.956;4.242;2022-12-29T15:07:33;11.60;99.90
13148;DHT22;6639;50.956;4.242;2022-12-29T15:10:05;11.70;99.90
13148;DHT22;6639;50.956;4.242;2022-12-29T15:12:38;11.50;99.90
13148;DHT22;6639;50.956;4.242;2022-12-29T15:15:22;11.60;99.90
13148;DHT22;6639;50.956;4.242;2022-12-29T15:17:50;11.30;99.90
13148;DHT22;6639;50.956;4.242;2022-12-29T15:20:23;11.40;99.90
13148;DHT22;6639;50.956;4.242;2022-12-29T15:22:54;11.50;99.90
13148;DHT22;6639;50.956;4.242;2022-12-29T15:25:22;11.50;99.90
13148;DHT22;6639;50.956;4.242;2022-12-29T15:27:51;11.60;99.90
13148;DHT22;6639;50.956;4.242;2022-12-29T15:30:20;11.70;99.90
13148;DHT22;6639;50.956;4.242;2022-12-29T15:32:51;11.90;99.90
13148;DHT22;6639;50.956;4.242;2022-12-29T15:35:32;11.90;99.90
13148;DHT22;6639;50.956;4.242;2022-12-29T15:38:01;11.90;99.90
13148;DHT22;6639;50.956;4.242;2022-12-29T15:40:39;11.90;99.90
13148;DHT22;6639;50.956;4.242;2022-12-29T15:43:27;11.90;99.90
13148;DHT22;6639;50.956;4.242;2022-12-29T15:46:00;12.10;99.90
13148;DHT22;6639;50.956;4.242;2022-12-29T15:48:28;11.70;99.90
13148;DHT22;6639;50.956;4.242;2022-12-29T15:50:56;11.80;99.90
13148;DHT22;6639;50.956;4.242;2022-12-29T15:53:27;11.50;99.90
13148;DHT22;6639;50.956;4.242;2022-12-29T15:55:56;11.60;99.90
13148;DHT22;6639;50.956;4.242;2022-12-29T15:58:25;11.50;99.90
13148;DHT22;6639;50.956;4.242;2022-12-29T16:00:54;11.70;99.90
13148;DHT22;6639;50.956;4.242;2022-12-29T16:03:25;11.80;99.90
13148;DHT22;6639;50.956;4.242;2022-12-29T16:05:54;12.00;99.90
13148;DHT22;6639;50.956;4.242;2022-12-29T16:08:27;11.90;99.90
13148;DHT22;6639;50.956;4.242;2022-12-29T16:10:58;12.10;99.90
13148;DHT22;6639;50.956;4.242;2022-12-29T16:13:30;12.00;99.90
13148;DHT22;6639;50.956;4.242;2022-12-29T16:16:00;12.00;99.90
13148;DHT22;6639;50.956;4.242;2022-12-29T16:18:33;12.10;99.90
13148;DHT22;6639;50.956;4.242;2022-12-29T16:21:02;12.20;99.90
13148;DHT22;6639;50.956;4.242;2022-12-29T16:23:31;11.90;99.90
13148;DHT22;6639;50.956;4.242;2022-12-29T16:25:59;11.80;99.90
13148;DHT22;6639;50.956;4.242;2022-12-29T16:28:34;11.50;99.90